Time;durP1;ratioP1;P1;durP2;ratioP2;P2;SDS_P1;SDS_P2;PMS_P1;PMS_P2;Temp;Humidity;BMP_temperature;BMP_pressure;BME280_temperature;BME280_humidity;BME280_pressure;Samples;Min_cycle;Max_cycle;Signal;HPM_P1;HPM_P2
2021/12/14 00:00:24;;;;;;;;;87.00;71.75;3.70;97.60;;;;;;5077874;28;9521;-69
2021/12/14 00:02:51;;;;;;;;;79.00;64.00;3.80;98.10;;;;;;5078062;28;9446;-68
2021/12/14 00:05:24;;;;;;;;;86.00;70.00;4.10;96.50;;;;;;5065959;28;8795;-70
2021/12/14 00:07:50;;;;;;;;;85.50;70.25;4.10;95.90;;;;;;5072393;28;8866;-71
2021/12/14 00:10:48;;;;;;;;;81.75;67.75;4.00;96.00;;;;;;5063180;28;8992;-71
2021/12/14 00:13:41;;;;;;;;;82.50;67.50;4.00;96.50;;;;;;5076375;28;8909;-70
2021/12/14 00:16:09;;;;;;;;;80.50;67.00;4.30;94.60;;;;;;5057675;28;8783;-70
2021/12/14 00:18:36;;;;;;;;;77.25;64.75;4.30;94.60;;;;;;5057244;28;8806;-71
2021/12/14 00:21:12;;;;;;;;;74.50;62.75;4.10;95.60;;;;;;5057449;28;8874;-69
2021/12/14 00:26:23;;;;;;;;;83.25;68.25;3.80;97.80;;;;;;5057403;28;8763;-70
2021/12/14 00:28:50;;;;;;;;;82.25;67.75;4.00;97.30;;;;;;5057645;28;8759;-69
2021/12/14 00:31:19;;;;;;;;;83.00;68.50;4.30;95.90;;;;;;5056117;28;8854;-69
2021/12/14 00:33:49;;;;;;;;;83.25;68.75;4.70;92.60;;;;;;5057444;28;8775;-71
2021/12/14 00:36:16;;;;;;;;;89.00;72.00;4.40;94.30;;;;;;5057138;28;8755;-71
2021/12/14 00:38:44;;;;;;;;;78.00;65.00;4.50;93.50;;;;;;5057047;28;8751;-70
2021/12/14 00:41:15;;;;;;;;;86.50;69.75;4.20;94.80;;;;;;5057016;28;9468;-70
2021/12/14 00:43:41;;;;;;;;;88.25;71.25;4.10;95.50;;;;;;5057169;28;8736;-73
2021/12/14 00:46:07;;;;;;;;;83.50;69.25;4.10;95.70;;;;;;5056867;28;9421;-72
2021/12/14 00:48:33;;;;;;;;;92.00;75.25;4.20;95.90;;;;;;5056791;28;8791;-67
2021/12/14 00:51:01;;;;;;;;;87.75;72.25;4.20;95.30;;;;;;5056772;28;8976;-70
2021/12/14 00:53:28;;;;;;;;;80.50;66.25;3.80;97.30;;;;;;5056819;28;8783;-71
2021/12/14 00:55:58;;;;;;;;;85.00;70.00;3.80;97.50;;;;;;5056206;28;8790;-71
2021/12/14 00:58:24;;;;;;;;;79.50;65.50;4.10;95.90;;;;;;5057009;28;8817;-70
2021/12/14 01:01:00;;;;;;;;;88.00;72.25;4.20;96.10;;;;;;5056557;28;8775;-69
2021/12/14 01:03:30;;;;;;;;;80.00;66.25;4.20;95.00;;;;;;5056483;28;8759;-70
2021/12/14 01:05:58;;;;;;;;;93.25;78.00;4.30;94.60;;;;;;5056165;28;8897;-70
2021/12/14 01:08:37;;;;;;;;;92.25;77.00;4.40;93.80;;;;;;5056374;28;8868;-71
2021/12/14 01:11:14;;;;;;;;;82.50;68.00;4.20;94.50;;;;;;5056628;28;8814;-71
2021/12/14 01:13:45;;;;;;;;;91.75;79.00;4.10;95.40;;;;;;5056638;28;8771;-71
2021/12/14 01:16:30;;;;;;;;;94.25;79.50;4.20;94.70;;;;;;5056534;28;8754;-68
2021/12/14 01:19:12;;;;;;;;;99.00;85.50;4.00;95.80;;;;;;5056407;28;8820;-69
2021/12/14 01:27:10;;;;;;;;;89.25;71.00;4.10;96.10;;;;;;5056463;28;8763;-69
2021/12/14 01:29:37;;;;;;;;;95.75;81.00;4.30;95.10;;;;;;5056084;28;8820;-71
2021/12/14 01:32:05;;;;;;;;;92.50;77.75;4.40;93.80;;;;;;5055870;28;8912;-70
2021/12/14 01:34:32;;;;;;;;;93.50;78.00;4.20;94.50;;;;;;5056190;28;8798;-71
2021/12/14 01:37:04;;;;;;;;;89.75;73.25;4.20;94.50;;;;;;5055923;28;8748;-69
2021/12/14 01:42:12;;;;;;;;;90.00;73.00;4.40;93.90;;;;;;5056033;28;8911;-69
2021/12/14 01:44:49;;;;;;;;;98.00;83.75;4.60;92.90;;;;;;5056012;28;9441;-72
2021/12/14 01:47:32;;;;;;;;;87.75;72.50;4.70;92.60;;;;;;5056031;28;8767;-71
2021/12/14 01:49:58;;;;;;;;;90.50;75.75;4.60;92.70;;;;;;5055941;28;8795;-71
2021/12/14 01:52:30;;;;;;;;;89.00;73.00;4.60;91.60;;;;;;5054639;28;8843;-69
2021/12/14 01:55:13;;;;;;;;;90.75;76.25;4.40;92.70;;;;;;5055612;28;8787;-68
2021/12/14 01:57:40;;;;;;;;;87.25;71.00;4.20;93.90;;;;;;5055630;28;8767;-71
2021/12/14 02:00:15;;;;;;;;;95.25;82.25;4.40;93.30;;;;;;5055526;28;8779;-70
2021/12/14 02:02:44;;;;;;;;;94.25;79.75;4.60;92.20;;;;;;5055490;28;8795;-72
2021/12/14 02:05:27;;;;;;;;;90.75;76.25;4.40;92.60;;;;;;5055535;28;8779;-72
2021/12/14 02:07:56;;;;;;;;;91.25;74.50;4.00;94.90;;;;;;5055268;28;8799;-71
2021/12/14 02:10:32;;;;;;;;;91.50;79.00;4.00;94.90;;;;;;5055019;28;9452;-72
2021/12/14 02:12:59;;;;;;;;;88.00;72.00;4.00;94.90;;;;;;5055098;28;8810;-72
2021/12/14 02:15:44;;;;;;;;;89.25;73.50;4.10;94.80;;;;;;5055355;28;8778;-71
2021/12/14 02:18:14;;;;;;;;;87.25;72.00;3.50;97.50;;;;;;5055067;28;8793;-70
2021/12/14 02:20:52;;;;;;;;;90.50;72.25;3.60;97.90;;;;;;5055030;28;8763;-71
2021/12/14 02:23:18;;;;;;;;;88.25;71.50;3.70;97.20;;;;;;5054917;28;8787;-73
2021/12/14 02:25:44;;;;;;;;;84.00;69.00;3.60;97.70;;;;;;5054939;28;8795;-71
2021/12/14 02:28:17;;;;;;;;;90.25;73.00;3.50;98.70;;;;;;5054910;28;8789;-68
2021/12/14 02:30:44;;;;;;;;;90.00;74.00;3.60;98.20;;;;;;5054867;28;8799;-70
2021/12/14 02:33:23;;;;;;;;;87.25;70.25;3.70;97.50;;;;;;5053744;28;8889;-71
2021/12/14 02:35:50;;;;;;;;;86.75;70.00;3.50;99.00;;;;;;5055085;28;8801;-68
2021/12/14 02:38:18;;;;;;;;;86.50;70.00;3.70;99.00;;;;;;5055046;28;8793;-71
2021/12/14 02:40:59;;;;;;;;;85.25;70.50;3.70;98.90;;;;;;5054700;28;8799;-71
2021/12/14 02:43:43;;;;;;;;;85.75;68.75;4.00;97.70;;;;;;5054926;28;8782;-71
2021/12/14 02:46:18;;;;;;;;;79.50;65.75;4.40;95.40;;;;;;5054675;28;8856;-70
2021/12/14 02:48:49;;;;;;;;;61.50;49.75;4.40;94.90;;;;;;5054745;28;8807;-71
2021/12/14 02:51:21;;;;;;;;;78.00;65.00;4.60;94.10;;;;;;5054744;28;8810;-70
2021/12/14 02:53:50;;;;;;;;;82.25;68.50;4.50;93.80;;;;;;5054505;28;8780;-70
2021/12/14 02:56:24;;;;;;;;;79.25;64.75;4.50;94.40;;;;;;5054098;28;8790;-71
2021/12/14 02:58:56;;;;;;;;;79.50;65.75;4.30;96.10;;;;;;5054708;28;8778;-72
2021/12/14 03:01:23;;;;;;;;;80.25;65.50;4.10;96.50;;;;;;5054404;28;8790;-72
2021/12/14 03:03:48;;;;;;;;;79.25;65.50;3.90;98.50;;;;;;5054344;28;8771;-72
2021/12/14 03:06:20;;;;;;;;;80.00;64.75;3.90;99.40;;;;;;5054193;28;8820;-70
2021/12/14 03:08:57;;;;;;;;;76.25;63.25;4.10;98.80;;;;;;5054643;28;8767;-72
2021/12/14 03:11:24;;;;;;;;;80.50;65.75;4.20;97.80;;;;;;5054359;28;8947;-69
2021/12/14 03:13:52;;;;;;;;;76.00;63.75;4.40;96.80;;;;;;5054593;28;8847;-71
2021/12/14 03:16:25;;;;;;;;;83.25;68.00;4.60;95.60;;;;;;5054444;28;8829;-72
2021/12/14 03:18:53;;;;;;;;;80.50;66.00;5.00;93.10;;;;;;5060053;28;8799;-71
2021/12/14 03:21:27;;;;;;;;;82.50;67.00;5.00;93.20;;;;;;5060900;28;8767;-72
2021/12/14 03:24:01;;;;;;;;;82.00;66.00;5.60;90.20;;;;;;5061162;28;8762;-72
2021/12/14 03:26:30;;;;;;;;;79.25;66.00;5.80;86.90;;;;;;5060922;28;8767;-70
2021/12/14 03:29:03;;;;;;;;;78.25;64.50;6.10;84.30;;;;;;5061105;28;8763;-71
2021/12/14 03:31:50;;;;;;;;;78.25;63.75;6.30;82.80;;;;;;5061002;28;8803;-72
2021/12/14 03:34:26;;;;;;;;;73.75;60.50;6.00;82.90;;;;;;5060852;28;8771;-72
2021/12/14 03:37:13;;;;;;;;;73.50;61.75;5.60;87.10;;;;;;5060722;28;8758;-71
2021/12/14 03:39:53;;;;;;;;;68.75;58.00;5.40;89.00;;;;;;5060964;28;8759;-71
2021/12/14 03:42:33;;;;;;;;;68.75;58.00;5.20;90.90;;;;;;5060691;28;8848;-69
2021/12/14 03:44:59;;;;;;;;;74.50;61.50;5.30;90.80;;;;;;5060710;28;8802;-72
2021/12/14 03:47:29;;;;;;;;;74.00;61.25;5.60;89.30;;;;;;5060802;28;8851;-72
2021/12/14 03:49:58;;;;;;;;;71.50;59.00;5.90;84.90;;;;;;5060756;28;8809;-72
2021/12/14 03:52:28;;;;;;;;;62.25;53.25;5.70;85.70;;;;;;5060469;28;9015;-70
2021/12/14 03:54:56;;;;;;;;;74.75;61.00;5.40;88.10;;;;;;5060585;28;8787;-69
2021/12/14 03:57:22;;;;;;;;;76.75;62.25;5.30;90.00;;;;;;5060882;28;9505;-70
2021/12/14 03:59:49;;;;;;;;;74.75;61.75;4.90;91.50;;;;;;5060925;28;8797;-71
2021/12/14 04:02:18;;;;;;;;;73.75;61.25;4.90;92.70;;;;;;5060523;28;8778;-68
2021/12/14 04:05:02;;;;;;;;;75.75;63.25;4.90;92.00;;;;;;5060577;28;9007;-72
2021/12/14 04:07:30;;;;;;;;;77.75;63.00;4.60;93.70;;;;;;5060401;28;8825;-72
2021/12/14 04:09:56;;;;;;;;;77.75;64.75;4.60;93.90;;;;;;5060637;28;8755;-69
2021/12/14 04:12:23;;;;;;;;;74.50;63.00;4.80;93.30;;;;;;5060466;28;8917;-71
2021/12/14 04:14:53;;;;;;;;;76.25;64.00;4.90;92.40;;;;;;5060488;28;8770;-72
2021/12/14 04:17:23;;;;;;;;;74.00;61.75;5.20;91.10;;;;;;5060482;28;8830;-71
2021/12/14 04:19:49;;;;;;;;;73.50;61.50;4.90;91.60;;;;;;5060693;28;8795;-72
2021/12/14 04:22:19;;;;;;;;;75.50;62.50;4.60;93.60;;;;;;5060370;28;8767;-70
2021/12/14 04:24:48;;;;;;;;;76.50;63.00;4.10;96.10;;;;;;5060317;28;8836;-69
2021/12/14 04:27:21;;;;;;;;;76.50;62.75;3.80;98.80;;;;;;5060319;28;8782;-72
2021/12/14 04:29:47;;;;;;;;;82.50;66.75;3.70;99.80;;;;;;5057252;28;8787;-72
2021/12/14 04:32:14;;;;;;;;;77.00;65.00;3.60;99.90;;;;;;5057405;28;8809;-70
2021/12/14 04:34:41;;;;;;;;;77.25;63.75;3.70;99.90;;;;;;5057430;28;8782;-70
2021/12/14 04:37:09;;;;;;;;;78.00;64.00;3.60;99.90;;;;;;5057372;28;8763;-70
2021/12/14 04:39:46;;;;;;;;;75.75;61.75;3.50;99.90;;;;;;5059811;28;8782;-70
2021/12/14 04:53:22;;;;;;;;;90.25;72.25;3.80;99.90;;;;;;5056845;28;8779;-70
2021/12/14 04:55:52;;;;;;;;;80.50;65.00;3.60;99.90;;;;;;5056932;28;8794;-74
2021/12/14 04:58:30;;;;;;;;;83.50;68.00;3.60;99.90;;;;;;5056993;28;9721;-70
2021/12/14 05:00:56;;;;;;;;;83.25;68.00;3.70;99.90;;;;;;5056959;28;8767;-70
2021/12/14 05:03:35;;;;;;;;;83.25;68.25;3.70;99.30;;;;;;5056754;28;8771;-70
2021/12/14 05:11:12;;;;;;;;;82.25;66.25;3.60;99.90;;;;;;5056588;28;8815;-69
2021/12/14 05:13:42;;;;;;;;;76.75;64.00;3.50;99.90;;;;;;5056424;28;8852;-72
2021/12/14 05:16:16;;;;;;;;;60.50;50.50;3.40;99.90;;;;;;5056338;28;8763;-71
2021/12/14 05:19:00;;;;;;;;;75.50;63.00;3.30;99.90;;;;;;5056244;28;8799;-73
2021/12/14 05:21:34;;;;;;;;;81.00;66.00;3.60;99.90;;;;;;5056280;28;8779;-70
2021/12/14 05:24:04;;;;;;;;;78.75;63.50;4.10;97.80;;;;;;5056157;28;8786;-71
2021/12/14 05:26:30;;;;;;;;;71.75;60.25;4.40;96.20;;;;;;5056321;28;8767;-71
2021/12/14 05:28:57;;;;;;;;;81.75;65.25;4.10;96.10;;;;;;5056097;28;8844;-69
2021/12/14 05:31:23;;;;;;;;;76.50;64.00;4.20;95.40;;;;;;5056307;28;8817;-72
2021/12/14 05:33:49;;;;;;;;;74.50;61.25;3.40;99.30;;;;;;5056243;28;9394;-70
2021/12/14 05:36:17;;;;;;;;;84.25;69.25;3.10;99.90;;;;;;5056149;28;8759;-73
2021/12/14 05:38:54;;;;;;;;;77.25;65.00;3.00;99.90;;;;;;5057497;28;8781;-68
2021/12/14 05:44:19;;;;;;;;;83.75;68.75;3.00;99.90;;;;;;5056005;28;8775;-68
2021/12/14 05:46:51;;;;;;;;;83.50;68.00;3.00;99.90;;;;;;5071383;28;8756;-72
2021/12/14 05:49:23;;;;;;;;;78.75;65.50;3.00;99.90;;;;;;5075746;28;8792;-67
2021/12/14 05:51:51;;;;;;;;;73.25;61.00;2.90;99.90;;;;;;5075577;28;8828;-65
2021/12/14 05:54:26;;;;;;;;;86.00;67.00;3.30;99.90;;;;;;5075559;28;8869;-64
2021/12/14 05:56:54;;;;;;;;;66.00;55.00;3.10;99.90;;;;;;5069276;28;8764;-66
2021/12/14 05:59:30;;;;;;;;;77.00;61.25;3.10;99.90;;;;;;5064334;28;8794;-65
2021/12/14 06:01:57;;;;;;;;;71.50;59.50;2.50;99.90;;;;;;5069315;28;8752;-70
2021/12/14 06:04:28;;;;;;;;;73.00;59.75;2.50;99.90;;;;;;5056826;28;8783;-66
2021/12/14 06:06:55;;;;;;;;;85.75;66.75;2.20;99.90;;;;;;5055072;28;8814;-64
2021/12/14 06:09:27;;;;;;;;;89.25;68.75;2.10;99.90;;;;;;5065191;28;8772;-69
2021/12/14 06:11:57;;;;;;;;;80.50;63.75;1.90;99.90;;;;;;5074898;28;8792;-67
2021/12/14 06:14:27;;;;;;;;;78.50;62.00;2.00;99.90;;;;;;5075102;28;8761;-67
2021/12/14 06:17:11;;;;;;;;;75.25;61.75;2.10;99.90;;;;;;5075221;28;8897;-68
2021/12/14 06:19:41;;;;;;;;;80.50;61.25;2.10;99.90;;;;;;5075385;28;8800;-68
2021/12/14 06:22:13;;;;;;;;;80.75;66.00;2.00;99.90;;;;;;5074958;28;8768;-68
2021/12/14 06:24:45;;;;;;;;;76.00;58.75;2.40;99.90;;;;;;5075245;28;8773;-70
2021/12/14 06:27:17;;;;;;;;;76.75;62.00;2.60;99.90;;;;;;5075013;28;8760;-67
2021/12/14 06:29:56;;;;;;;;;68.25;57.50;2.80;99.90;;;;;;5075069;28;8906;-69
2021/12/14 06:32:26;;;;;;;;;66.50;56.50;3.20;99.90;;;;;;5075188;28;9445;-69
2021/12/14 06:34:55;;;;;;;;;51.75;46.00;3.10;99.90;;;;;;5075127;28;8803;-68
2021/12/14 06:40:16;;;;;;;;;79.50;61.00;2.80;99.90;;;;;;5075180;28;8745;-69
2021/12/14 06:42:56;;;;;;;;;72.00;56.50;2.60;99.90;;;;;;5073867;28;9410;-69
2021/12/14 06:45:29;;;;;;;;;79.25;61.00;2.50;99.90;;;;;;5075000;28;8760;-68
2021/12/14 06:48:03;;;;;;;;;61.75;49.25;2.30;99.90;;;;;;5074447;28;8799;-71
2021/12/14 06:50:36;;;;;;;;;78.50;61.50;2.50;99.90;;;;;;5075046;28;8796;-69
2021/12/14 06:53:09;;;;;;;;;74.00;61.50;2.40;99.90;;;;;;5073879;28;8818;-68
2021/12/14 06:55:37;;;;;;;;;79.50;62.50;2.40;99.90;;;;;;5075057;28;8864;-68
2021/12/14 06:58:08;;;;;;;;;69.75;59.00;2.60;99.90;;;;;;5074711;28;8780;-69
2021/12/14 07:00:36;;;;;;;;;68.00;57.75;2.60;99.90;;;;;;5074523;28;8772;-70
2021/12/14 07:03:03;;;;;;;;;72.25;60.25;2.50;99.90;;;;;;5074538;28;8757;-68
2021/12/14 07:05:29;;;;;;;;;74.50;61.50;2.70;99.90;;;;;;5074713;28;8772;-70
2021/12/14 07:07:57;;;;;;;;;61.50;51.25;2.50;99.90;;;;;;5074353;28;8881;-70
2021/12/14 07:10:24;;;;;;;;;75.75;61.50;2.60;99.90;;;;;;5074447;28;9202;-70
2021/12/14 07:12:51;;;;;;;;;76.75;61.75;2.60;99.90;;;;;;5074603;28;8886;-69
2021/12/14 07:15:26;;;;;;;;;68.75;59.00;2.60;99.90;;;;;;5074406;28;8799;-69
2021/12/14 07:18:03;;;;;;;;;73.50;61.00;2.50;99.90;;;;;;5074337;28;8783;-69
2021/12/14 07:20:31;;;;;;;;;73.50;61.25;2.70;99.90;;;;;;5075157;28;8808;-70
2021/12/14 07:23:01;;;;;;;;;58.75;51.00;2.70;99.90;;;;;;5074312;28;8845;-70
2021/12/14 07:25:37;;;;;;;;;68.50;57.50;2.80;99.90;;;;;;5074550;28;8764;-69
2021/12/14 07:28:10;;;;;;;;;74.00;60.75;3.10;99.90;;;;;;5074387;28;8761;-70
2021/12/14 07:30:43;;;;;;;;;67.00;54.25;2.90;99.90;;;;;;5074175;28;8787;-70
2021/12/14 07:33:25;;;;;;;;;69.25;59.00;3.10;99.90;;;;;;5073972;28;8804;-70
2021/12/14 07:36:20;;;;;;;;;68.75;58.25;3.40;99.90;;;;;;5073915;28;8803;-70
2021/12/14 07:38:53;;;;;;;;;72.00;60.75;3.20;99.90;;;;;;5074299;28;9442;-69
2021/12/14 07:41:25;;;;;;;;;70.25;58.75;3.10;99.90;;;;;;5074313;28;8772;-70
2021/12/14 07:44:02;;;;;;;;;69.75;59.50;3.20;99.90;;;;;;5074042;28;8768;-69
2021/12/14 07:46:48;;;;;;;;;59.50;50.75;3.30;99.90;;;;;;5073969;28;8799;-71
2021/12/14 07:49:30;;;;;;;;;61.50;53.25;3.50;99.90;;;;;;5073980;28;8822;-70
2021/12/14 07:52:08;;;;;;;;;66.75;56.75;3.30;99.90;;;;;;5073931;28;8791;-70
2021/12/14 07:54:41;;;;;;;;;63.00;52.75;3.10;99.90;;;;;;5073864;28;8796;-71
2021/12/14 07:57:10;;;;;;;;;61.00;53.00;3.30;99.90;;;;;;5074166;28;8825;-70
2021/12/14 07:59:49;;;;;;;;;75.00;60.75;3.10;99.90;;;;;;5073849;28;8799;-70
2021/12/14 08:02:38;;;;;;;;;66.00;55.50;3.40;99.90;;;;;;5073746;28;8781;-69
2021/12/14 08:05:24;;;;;;;;;80.75;66.00;3.50;99.90;;;;;;5076826;28;8780;-69
2021/12/14 08:07:59;;;;;;;;;65.75;56.00;3.40;99.90;;;;;;5077511;28;8807;-69
2021/12/14 08:10:29;;;;;;;;;69.75;58.00;3.10;99.90;;;;;;5077814;28;8760;-70
2021/12/14 08:13:04;;;;;;;;;71.75;60.50;3.00;99.90;;;;;;5077574;28;8815;-68
2021/12/14 08:15:33;;;;;;;;;72.75;60.25;2.80;99.90;;;;;;5077779;28;8772;-70
2021/12/14 08:18:01;;;;;;;;;76.25;63.75;2.90;99.90;;;;;;5077341;28;8776;-70
2021/12/14 08:20:27;;;;;;;;;65.00;56.25;3.10;99.90;;;;;;5077685;28;8792;-68
2021/12/14 08:22:56;;;;;;;;;66.25;56.75;3.20;99.90;;;;;;5077216;28;8788;-68
2021/12/14 08:25:26;;;;;;;;;63.25;53.25;2.90;99.90;;;;;;5077474;28;9561;-68
2021/12/14 08:28:06;;;;;;;;;64.50;50.25;2.90;99.90;;;;;;5077333;28;8783;-71
2021/12/14 08:30:34;;;;;;;;;66.50;56.00;3.30;99.90;;;;;;5077108;28;8780;-70
2021/12/14 08:33:01;;;;;;;;;71.75;59.50;3.50;99.90;;;;;;5077033;28;8906;-69
2021/12/14 08:35:27;;;;;;;;;69.75;58.00;3.20;99.90;;;;;;5077342;28;8872;-67
2021/12/14 08:37:59;;;;;;;;;74.00;61.50;3.20;99.90;;;;;;5077153;28;8768;-71
2021/12/14 08:40:35;;;;;;;;;71.75;59.25;3.50;99.90;;;;;;5077264;28;8796;-70
2021/12/14 08:43:13;;;;;;;;;74.00;60.75;3.60;99.90;;;;;;5077347;28;8811;-68
2021/12/14 08:46:09;;;;;;;;;71.00;59.50;3.80;99.90;;;;;;5077014;28;8776;-70
2021/12/14 08:48:44;;;;;;;;;71.25;57.00;3.40;99.90;;;;;;5076520;28;8792;-70
2021/12/14 08:51:37;;;;;;;;;79.25;64.25;3.40;99.90;;;;;;5076965;28;8772;-70
2021/12/14 08:54:15;;;;;;;;;71.00;59.00;3.50;99.90;;;;;;5077090;28;8749;-71
2021/12/14 08:56:46;;;;;;;;;72.25;58.75;3.50;99.90;;;;;;5076979;28;8957;-70
2021/12/14 08:59:12;;;;;;;;;71.25;59.00;3.70;99.90;;;;;;5076696;28;8773;-69
2021/12/14 09:01:40;;;;;;;;;66.00;55.50;3.90;99.90;;;;;;5076667;28;8783;-69
2021/12/14 09:04:18;;;;;;;;;74.25;60.75;3.80;98.90;;;;;;5076857;28;8791;-67
2021/12/14 09:06:46;;;;;;;;;67.50;56.00;3.80;99.90;;;;;;5076412;28;8930;-70
2021/12/14 09:09:15;;;;;;;;;72.75;58.50;3.90;99.20;;;;;;5076508;28;9629;-68
2021/12/14 09:11:46;;;;;;;;;75.75;62.50;3.90;99.30;;;;;;5076398;28;8795;-69
2021/12/14 09:14:14;;;;;;;;;77.25;63.00;4.20;98.70;;;;;;5076679;28;9426;-71
2021/12/14 09:16:43;;;;;;;;;67.25;55.75;4.30;97.40;;;;;;5075981;28;8764;-69
2021/12/14 09:19:14;;;;;;;;;77.00;64.00;4.30;96.80;;;;;;5076493;28;9704;-69
2021/12/14 09:21:43;;;;;;;;;75.00;62.00;4.20;98.10;;;;;;5076402;28;8768;-68
2021/12/14 09:24:19;;;;;;;;;81.75;66.00;4.10;98.20;;;;;;5076268;28;8768;-70
2021/12/14 09:26:53;;;;;;;;;68.50;55.00;4.30;97.40;;;;;;5076371;28;8784;-70
2021/12/14 09:29:22;;;;;;;;;70.50;59.50;4.10;97.50;;;;;;5076186;28;8843;-70
2021/12/14 09:31:51;;;;;;;;;72.50;60.25;4.00;97.70;;;;;;5075974;28;8788;-69
2021/12/14 09:34:20;;;;;;;;;67.75;56.50;4.00;97.50;;;;;;5076243;28;8760;-72
2021/12/14 09:36:47;;;;;;;;;70.50;58.75;4.00;96.90;;;;;;5075910;28;8792;-70
2021/12/14 09:39:21;;;;;;;;;70.50;59.25;3.90;98.10;;;;;;5076204;28;8863;-69
2021/12/14 09:41:53;;;;;;;;;62.50;53.25;4.20;96.70;;;;;;5076076;28;8772;-69
2021/12/14 09:44:21;;;;;;;;;77.50;61.50;4.10;96.80;;;;;;5076063;28;9458;-70
2021/12/14 09:46:49;;;;;;;;;73.25;61.50;4.00;97.50;;;;;;5076017;28;8793;-70
2021/12/14 09:49:16;;;;;;;;;74.50;57.75;4.00;97.50;;;;;;5075785;28;8808;-70
2021/12/14 09:51:47;;;;;;;;;68.25;57.25;4.10;97.30;;;;;;5075643;28;8792;-70
2021/12/14 09:54:18;;;;;;;;;70.50;58.25;3.90;98.10;;;;;;5075814;28;9528;-68
2021/12/14 09:56:53;;;;;;;;;67.50;57.00;4.00;98.80;;;;;;5075679;28;8777;-69
2021/12/14 09:59:19;;;;;;;;;72.25;60.75;4.10;97.70;;;;;;5074368;28;8773;-70
2021/12/14 10:02:02;;;;;;;;;82.25;61.00;3.90;98.50;;;;;;5075477;28;8776;-71
2021/12/14 10:04:36;;;;;;;;;69.75;59.00;4.10;98.10;;;;;;5075339;28;8838;-70
2021/12/14 10:07:05;;;;;;;;;71.00;59.25;4.30;97.30;;;;;;5075210;28;8773;-70
2021/12/14 10:09:38;;;;;;;;;67.75;57.75;4.30;96.60;;;;;;5075007;28;9453;-71
2021/12/14 10:14:52;;;;;;;;;61.25;52.00;4.50;95.40;;;;;;5075413;28;8764;-71
2021/12/14 10:17:23;;;;;;;;;63.75;55.25;4.40;96.50;;;;;;5075394;28;8764;-71
2021/12/14 10:19:49;;;;;;;;;61.00;51.75;4.40;96.50;;;;;;5075488;28;9469;-69
2021/12/14 10:22:23;;;;;;;;;65.50;54.75;4.60;96.10;;;;;;5075279;28;8773;-70
2021/12/14 10:24:52;;;;;;;;;63.00;53.50;4.70;95.20;;;;;;5074979;28;8764;-67
2021/12/14 10:27:20;;;;;;;;;69.00;58.50;4.50;94.90;;;;;;5074060;28;8764;-69
2021/12/14 10:29:47;;;;;;;;;59.25;51.25;4.80;94.90;;;;;;5074904;28;8769;-70
2021/12/14 10:32:22;;;;;;;;;66.25;57.00;4.70;94.60;;;;;;5074818;28;8804;-71
2021/12/14 10:34:52;;;;;;;;;71.50;60.25;4.70;94.60;;;;;;5074855;28;8772;-69
2021/12/14 10:37:37;;;;;;;;;63.50;54.25;4.70;95.00;;;;;;5074772;28;8741;-71
2021/12/14 10:43:12;;;;;;;;;67.25;57.50;5.10;93.00;;;;;;5074888;28;8745;-67
2021/12/14 10:45:41;;;;;;;;;66.75;56.75;4.80;94.00;;;;;;5074960;28;8778;-70
2021/12/14 10:48:07;;;;;;;;;64.25;50.00;5.00;93.00;;;;;;5074657;28;8772;-70
2021/12/14 10:50:33;;;;;;;;;72.50;61.00;4.90;93.80;;;;;;5074921;28;8813;-70
2021/12/14 10:53:05;;;;;;;;;70.50;57.50;5.70;91.40;;;;;;5074610;28;8910;-68
2021/12/14 10:55:42;;;;;;;;;80.00;61.25;6.70;85.40;;;;;;5074533;28;8795;-68
2021/12/14 10:58:11;;;;;;;;;84.75;66.25;7.10;79.20;;;;;;5074450;28;8773;-71
2021/12/14 11:01:06;;;;;;;;;88.25;70.25;7.00;78.60;;;;;;5074432;28;8764;-68
2021/12/14 11:03:37;;;;;;;;;81.50;62.50;6.90;78.80;;;;;;5074018;28;8772;-71
2021/12/14 11:06:09;;;;;;;;;87.00;71.75;6.80;80.40;;;;;;5074134;28;8757;-69
2021/12/14 11:11:38;;;;;;;;;74.50;60.75;7.90;74.60;;;;;;5074397;28;8804;-71
2021/12/14 11:14:10;;;;;;;;;75.75;59.75;7.90;72.90;;;;;;5074666;28;8969;-71
2021/12/14 11:19:43;;;;;;;;;66.25;55.75;8.20;72.00;;;;;;5074439;28;8815;-71
2021/12/14 11:22:14;;;;;;;;;68.50;56.75;8.50;70.70;;;;;;5074658;28;8752;-70
2021/12/14 11:24:42;;;;;;;;;69.00;56.25;8.90;69.40;;;;;;5074360;28;8776;-72
2021/12/14 11:27:19;;;;;;;;;61.50;51.75;8.50;69.50;;;;;;5074471;28;8768;-71
2021/12/14 11:29:50;;;;;;;;;53.75;45.75;8.40;69.30;;;;;;5074239;28;8803;-72
2021/12/14 11:32:20;;;;;;;;;54.75;46.25;8.00;70.80;;;;;;5074435;28;8874;-71
2021/12/14 11:34:46;;;;;;;;;62.25;53.00;7.80;73.50;;;;;;5074416;28;8861;-69
2021/12/14 11:37:16;;;;;;;;;59.25;49.75;7.50;74.40;;;;;;5074184;28;8760;-71
2021/12/14 11:39:46;;;;;;;;;63.25;53.00;8.10;73.40;;;;;;5076685;28;8780;-71
2021/12/14 11:42:18;;;;;;;;;60.25;51.25;8.40;71.80;;;;;;5078464;28;8859;-69
2021/12/14 11:44:51;;;;;;;;;62.75;53.50;8.60;70.10;;;;;;5077945;28;8802;-71
2021/12/14 11:50:15;;;;;;;;;73.50;60.50;8.50;69.90;;;;;;5078275;28;8915;-70
2021/12/14 11:52:50;;;;;;;;;66.50;55.25;9.00;67.90;;;;;;5077432;28;8901;-71
2021/12/14 11:55:28;;;;;;;;;65.00;53.75;7.90;71.20;;;;;;5077760;28;8764;-70
2021/12/14 11:58:19;;;;;;;;;39.50;37.25;7.90;71.60;;;;;;5077826;28;8780;-70
2021/12/14 12:00:51;;;;;;;;;57.50;49.00;7.80;73.30;;;;;;5077947;28;8768;-69
2021/12/14 12:03:27;;;;;;;;;64.50;54.00;8.40;71.60;;;;;;5077792;28;8806;-71
2021/12/14 12:06:10;;;;;;;;;60.75;50.25;8.60;69.70;;;;;;5077784;28;8875;-71
2021/12/14 12:11:43;;;;;;;;;68.00;54.50;10.20;65.00;;;;;;5077520;28;8788;-72
2021/12/14 12:14:23;;;;;;;;;64.00;52.00;11.70;60.80;;;;;;5077383;28;8776;-70
2021/12/14 12:16:51;;;;;;;;;59.00;50.00;11.30;60.70;;;;;;5077536;28;8768;-74
2021/12/14 12:19:26;;;;;;;;;63.75;53.50;10.50;62.70;;;;;;5077541;28;8785;-73
2021/12/14 12:21:52;;;;;;;;;56.00;47.25;10.20;62.40;;;;;;5077785;28;8769;-72
2021/12/14 12:24:30;;;;;;;;;60.25;50.50;10.20;63.10;;;;;;5075755;28;9411;-70
2021/12/14 12:27:31;;;;;;;;;54.75;47.25;9.70;63.10;;;;;;5077578;28;9422;-72
2021/12/14 12:30:22;;;;;;;;;73.75;59.75;8.90;66.60;;;;;;5077294;28;8895;-70
2021/12/14 12:32:47;;;;;;;;;71.00;57.25;8.40;70.10;;;;;;5077343;28;8808;-72
2021/12/14 12:35:35;;;;;;;;;78.50;63.50;8.50;70.00;;;;;;5077126;28;8761;-72
2021/12/14 12:38:31;;;;;;;;;79.25;65.25;8.50;69.10;;;;;;5077321;28;8764;-73
2021/12/14 12:41:00;;;;;;;;;74.75;61.25;9.00;67.90;;;;;;5077206;28;8791;-73
2021/12/14 12:43:31;;;;;;;;;77.00;63.00;8.30;69.00;;;;;;5077339;28;8853;-72
2021/12/14 12:46:01;;;;;;;;;84.50;71.75;8.10;70.90;;;;;;5076053;28;8791;-72
2021/12/14 12:48:51;;;;;;;;;81.00;68.00;8.00;70.90;;;;;;5077049;28;9464;-71
2021/12/14 12:51:38;;;;;;;;;110.50;106.25;7.90;71.90;;;;;;5075811;28;8896;-72
2021/12/14 12:54:19;;;;;;;;;102.00;101.25;7.80;72.20;;;;;;5076739;28;8761;-72
2021/12/14 12:56:51;;;;;;;;;104.75;102.25;8.10;71.40;;;;;;5077128;28;8803;-72
2021/12/14 12:59:40;;;;;;;;;114.75;107.25;8.00;71.60;;;;;;5066072;28;8779;-68
2021/12/14 13:02:32;;;;;;;;;107.75;105.00;8.10;71.00;;;;;;5062314;28;8755;-67
2021/12/14 13:05:27;;;;;;;;;105.75;95.75;8.00;70.60;;;;;;5071128;28;9435;-68
2021/12/14 13:08:01;;;;;;;;;103.25;103.00;8.30;69.90;;;;;;5074740;28;8780;-70
2021/12/14 13:10:43;;;;;;;;;95.00;89.25;8.10;70.50;;;;;;5072802;28;8846;-68
2021/12/14 13:13:11;;;;;;;;;98.00;95.75;7.50;73.70;;;;;;5070675;28;8954;-69
2021/12/14 13:15:55;;;;;;;;;97.75;95.25;7.70;73.60;;;;;;5075273;28;9479;-74
2021/12/14 13:18:35;;;;;;;;;98.75;94.00;7.90;72.30;;;;;;5074727;28;8745;-74
2021/12/14 13:21:04;;;;;;;;;96.00;92.75;7.80;72.20;;;;;;5073206;28;8745;-70
2021/12/14 13:24:00;;;;;;;;;98.50;94.00;7.90;72.20;;;;;;5075239;28;8788;-67
2021/12/14 13:26:31;;;;;;;;;94.00;89.50;8.10;71.70;;;;;;5073493;28;8833;-69
2021/12/14 13:29:15;;;;;;;;;94.25;88.00;8.20;70.00;;;;;;5072362;28;8737;-68
2021/12/14 13:31:58;;;;;;;;;93.50;83.50;8.50;69.30;;;;;;5073100;28;8812;-67
2021/12/14 13:34:38;;;;;;;;;106.00;104.00;8.60;68.70;;;;;;5076044;28;8891;-67
2021/12/14 13:37:06;;;;;;;;;124.00;115.25;8.60;68.60;;;;;;5076052;28;8771;-71
2021/12/14 13:39:33;;;;;;;;;124.00;118.00;8.40;68.80;;;;;;5075897;28;8772;-71
2021/12/14 13:41:58;;;;;;;;;134.50;128.50;8.10;71.20;;;;;;5075796;28;8845;-69
2021/12/14 13:44:30;;;;;;;;;119.75;114.50;8.00;70.60;;;;;;5075756;28;8785;-69
2021/12/14 13:46:58;;;;;;;;;122.25;114.75;8.00;70.80;;;;;;5075709;28;8756;-69
2021/12/14 13:49:25;;;;;;;;;97.75;94.25;8.20;70.10;;;;;;5075639;28;8796;-69
2021/12/14 13:51:51;;;;;;;;;112.50;109.50;8.40;68.70;;;;;;5075810;28;8843;-69
2021/12/14 13:54:17;;;;;;;;;112.75;111.50;8.60;67.50;;;;;;5075627;28;8830;-68
2021/12/14 13:56:46;;;;;;;;;100.50;97.50;8.00;70.10;;;;;;5075398;28;8792;-71
2021/12/14 13:59:15;;;;;;;;;98.00;89.50;7.70;71.80;;;;;;5075475;28;8773;-70
2021/12/14 14:01:51;;;;;;;;;97.50;90.50;7.90;71.50;;;;;;5075212;28;8788;-69
2021/12/14 14:04:21;;;;;;;;;98.00;93.50;8.20;70.50;;;;;;5075665;28;8773;-67